Wetterdaten: Woche 09.06.14 - 15.06.14 (KW24)
Datum Zeit Temp. Aussen +5cm Feuchte Auss Luftdruck Regen Sonnenschein Regendauer UV Solar Windben
09.06.2014 00:00 20,8 C 18,7 C 90 % 1017,6 hPa 0,0 l/m 0,00 h 0,10 h 0,0 UV-I 0 W/m 1,5 km/h (1 Bft)
09.06.2014 01:00 20,8 C 18,6 C 91 % 1017,9 hPa 0,0 l/m 0,00 h 0,27 h 0,0 UV-I 0 W/m 4,4 km/h (1 Bft)
09.06.2014 02:00 20,1 C 18,3 C 95 % 1018,3 hPa 0,8 l/m 0,00 h 0,90 h 0,0 UV-I 0 W/m 4,4 km/h (1 Bft)
09.06.2014 03:00 19,7 C 17,9 C 97 % 1016,5 hPa 0,0 l/m 0,00 h 0,40 h 0,0 UV-I 0 W/m 20,3 km/h (4 Bft)
09.06.2014 04:00 19,3 C 17,4 C 96 % 1016,6 hPa 0,0 l/m 0,00 h 0,00 h 0,0 UV-I 0 W/m 4,7 km/h (1 Bft)
09.06.2014 05:00 18,8 C 17,2 C 98 % 1016,9 hPa 0,0 l/m 0,00 h 0,00 h 0,0 UV-I 9 W/m 6,1 km/h (2 Bft)
09.06.2014 06:00 18,8 C 17,2 C 98 % 1017,3 hPa 0,0 l/m 0,00 h 0,00 h 0,0 UV-I 50 W/m 13,7 km/h (3 Bft)
09.06.2014 07:00 19,2 C 17,4 C 97 % 1016,8 hPa 0,0 l/m 0,80 h 0,00 h 0,0 UV-I 162 W/m 17,1 km/h (3 Bft)
09.06.2014 08:00 20,9 C 18,2 C 93 % 1016,7 hPa 0,0 l/m 1,00 h 0,00 h 0,0 UV-I 316 W/m 10,3 km/h (2 Bft)
09.06.2014 09:00 23,7 C 20,0 C 85 % 1016,4 hPa 0,0 l/m 1,00 h 0,00 h 0,9 UV-I 462 W/m 6,6 km/h (2 Bft)
09.06.2014 10:00 26,3 C 26,2 C 77 % 1016,1 hPa 0,0 l/m 1,00 h 0,00 h 2,5 UV-I 591 W/m 9,7 km/h (2 Bft)
09.06.2014 11:00 28,0 C 30,5 C 73 % 1016,1 hPa 0,0 l/m 1,00 h 0,00 h 3,8 UV-I 694 W/m 11,5 km/h (2 Bft)
09.06.2014 12:00 29,0 C 31,0 C 69 % 1016,4 hPa 0,0 l/m 0,97 h 0,00 h 4,5 UV-I 655 W/m 8,0 km/h (2 Bft)
09.06.2014 13:00 28,2 C 26,9 C 72 % 1017,1 hPa 0,2 l/m 0,47 h 0,10 h 1,8 UV-I 365 W/m 18,7 km/h (3 Bft)
09.06.2014 14:00 27,4 C 26,9 C 70 % 1016,4 hPa 0,0 l/m 0,60 h 0,00 h 3,7 UV-I 568 W/m 24,6 km/h (4 Bft)
09.06.2014 15:00 27,9 C 26,8 C 65 % 1015,7 hPa 0,0 l/m 0,30 h 0,00 h 2,5 UV-I 384 W/m 14,4 km/h (3 Bft)
09.06.2014 16:00 28,9 C 27,9 C 59 % 1015,5 hPa 0,0 l/m 0,73 h 0,00 h 2,9 UV-I 546 W/m 11,5 km/h (2 Bft)
09.06.2014 17:00 29,4 C 27,6 C 54 % 1015,4 hPa 0,0 l/m 1,00 h 0,00 h 2,1 UV-I 534 W/m 11,0 km/h (2 Bft)
09.06.2014 18:00 29,1 C 26,8 C 53 % 1015,1 hPa 0,0 l/m 0,98 h 0,00 h 1,2 UV-I 407 W/m 11,2 km/h (2 Bft)
09.06.2014 19:00 28,2 C 26,0 C 57 % 1014,3 hPa 0,0 l/m 0,27 h 0,00 h 0,6 UV-I 119 W/m 13,5 km/h (3 Bft)
09.06.2014 20:00 25,8 C 22,5 C 65 % 1015,6 hPa 2,8 l/m 0,00 h 0,18 h 0,0 UV-I 6 W/m 27,6 km/h (4 Bft)
09.06.2014 21:00 18,5 C 16,4 C 92 % 1017,9 hPa 14,4 l/m 0,00 h 0,00 h 0,0 UV-I 0 W/m 43,4 km/h (6 Bft)
09.06.2014 22:00 20,0 C 17,0 C 82 % 1014,6 hPa 0,2 l/m 0,00 h 0,65 h 0,0 UV-I 0 W/m 35,7 km/h (5 Bft)
09.06.2014 23:00 19,3 C 16,7 C 86 % 1015,4 hPa 0,0 l/m 0,00 h 0,00 h 0,0 UV-I 0 W/m 19,0 km/h (3 Bft)
10.06.2014 00:00 18,0 C 16,2 C 91 % 1016,1 hPa 0,0 l/m 0,00 h 0,00 h 0,0 UV-I 0 W/m 11,6 km/h (2 Bft)
10.06.2014 01:00 17,5 C 15,7 C 94 % 1016,1 hPa 0,0 l/m 0,00 h 0,00 h 0,0 UV-I 0 W/m 2,8 km/h (1 Bft)
10.06.2014 02:00 16,7 C 15,0 C 97 % 1015,9 hPa 0,0 l/m 0,00 h 0,00 h 0,0 UV-I 0 W/m 0,4 km/h (0 Bft)
10.06.2014 03:00 16,2 C 14,8 C 98 % 1015,0 hPa 0,0 l/m 0,00 h 0,00 h 0,0 UV-I 0 W/m 0,4 km/h (0 Bft)
10.06.2014 04:00 16,3 C 15,1 C 98 % 1015,3 hPa 0,0 l/m 0,00 h 0,13 h 0,0 UV-I 0 W/m 8,7 km/h (2 Bft)
10.06.2014 05:00 17,2 C 15,6 C 96 % 1018,1 hPa 4,8 l/m 0,00 h 0,77 h 0,0 UV-I 0 W/m 21,1 km/h (4 Bft)
10.06.2014 06:00 17,0 C 15,6 C 97 % 1017,1 hPa 0,0 l/m 0,00 h 0,00 h 0,0 UV-I 23 W/m 17,4 km/h (3 Bft)
10.06.2014 07:00 17,5 C 16,3 C 97 % 1017,2 hPa 0,0 l/m 0,37 h 0,00 h 0,0 UV-I 129 W/m 1,9 km/h (1 Bft)
10.06.2014 08:00 18,3 C 17,2 C 97 % 1017,1 hPa 0,0 l/m 0,07 h 0,00 h 0,0 UV-I 126 W/m 5,7 km/h (1 Bft)
10.06.2014 09:00 19,9 C 18,7 C 94 % 1016,8 hPa 0,0 l/m 0,73 h 0,00 h 0,7 UV-I 408 W/m 15,3 km/h (3 Bft)
10.06.2014 10:00 22,4 C 23,2 C 87 % 1016,7 hPa 0,0 l/m 0,97 h 0,00 h 1,2 UV-I 589 W/m 18,2 km/h (3 Bft)
10.06.2014 11:00 24,9 C 27,9 C 77 % 1016,9 hPa 0,0 l/m 0,97 h 0,00 h 3,6 UV-I 709 W/m 18,3 km/h (3 Bft)
10.06.2014 12:00 26,8 C 29,6 C 72 % 1017,3 hPa 0,0 l/m 0,77 h 0,00 h 4,4 UV-I 672 W/m 15,7 km/h (3 Bft)
10.06.2014 13:00 28,6 C 28,3 C 65 % 1017,1 hPa 0,0 l/m 0,97 h 0,00 h 5,5 UV-I 820 W/m 12,2 km/h (2 Bft)
10.06.2014 14:00 29,2 C 28,3 C 63 % 1017,3 hPa 0,0 l/m 0,97 h 0,00 h 5,1 UV-I 782 W/m 13,9 km/h (3 Bft)
10.06.2014 15:00 29,3 C 28,7 C 63 % 1018,0 hPa 0,0 l/m 0,77 h 0,00 h 3,6 UV-I 665 W/m 18,5 km/h (3 Bft)
10.06.2014 16:00 28,7 C 30,8 C 63 % 1018,5 hPa 0,0 l/m 0,43 h 0,00 h 2,2 UV-I 426 W/m 21,6 km/h (4 Bft)
10.06.2014 17:00 27,5 C 26,7 C 65 % 1018,9 hPa 0,0 l/m 0,83 h 0,00 h 1,2 UV-I 514 W/m 28,9 km/h (5 Bft)
10.06.2014 18:00 26,0 C 24,4 C 69 % 1018,8 hPa 0,0 l/m 0,97 h 0,00 h 0,7 UV-I 347 W/m 19,5 km/h (3 Bft)
10.06.2014 19:00 24,8 C 23,5 C 74 % 1019,0 hPa 0,0 l/m 0,37 h 0,00 h 0,0 UV-I 143 W/m 11,7 km/h (2 Bft)
10.06.2014 20:00 24,1 C 22,7 C 78 % 1019,3 hPa 0,0 l/m 0,13 h 0,00 h 0,0 UV-I 65 W/m 3,6 km/h (1 Bft)
10.06.2014 21:00 23,4 C 21,3 C 82 % 1019,9 hPa 0,0 l/m 0,57 h 0,00 h 0,0 UV-I 25 W/m 4,3 km/h (1 Bft)
10.06.2014 22:00 22,0 C 20,0 C 85 % 1020,5 hPa 0,0 l/m 0,00 h 0,00 h 0,0 UV-I 5 W/m 9,2 km/h (2 Bft)
10.06.2014 23:00 20,9 C 19,2 C 85 % 1020,8 hPa 0,0 l/m 0,00 h 0,00 h 0,0 UV-I 0 W/m 11,1 km/h (2 Bft)
11.06.2014 00:00 20,1 C 18,6 C 87 % 1021,4 hPa 0,0 l/m 0,00 h 0,07 h 0,0 UV-I 0 W/m 9,8 km/h (2 Bft)
11.06.2014 01:00 19,1 C 17,2 C 93 % 1022,1 hPa 3,2 l/m 0,00 h 0,80 h 0,0 UV-I 0 W/m 11,3 km/h (2 Bft)
11.06.2014 02:00 18,3 C 17,0 C 97 % 1022,0 hPa 0,6 l/m 0,00 h 0,53 h 0,0 UV-I 0 W/m 4,6 km/h (1 Bft)
11.06.2014 03:00 17,4 C 15,9 C 97 % 1022,1 hPa 0,0 l/m 0,00 h 0,07 h 0,0 UV-I 0 W/m 9,5 km/h (2 Bft)
11.06.2014 04:00 16,5 C 15,0 C 95 % 1023,0 hPa 0,2 l/m 0,00 h 0,43 h 0,0 UV-I 0 W/m 4,2 km/h (1 Bft)
11.06.2014 05:00 15,9 C 14,5 C 96 % 1024,1 hPa 1,0 l/m 0,00 h 0,93 h 0,0 UV-I 0 W/m 1,7 km/h (1 Bft)
11.06.2014 06:00 15,6 C 14,4 C 97 % 1023,9 hPa 0,6 l/m 0,00 h 0,97 h 0,0 UV-I 10 W/m 7,7 km/h (2 Bft)
11.06.2014 07:00 14,7 C 13,7 C 96 % 1023,9 hPa 0,6 l/m 0,00 h 0,90 h 0,0 UV-I 45 W/m 9,0 km/h (2 Bft)
11.06.2014 08:00 14,8 C 14,1 C 96 % 1024,0 hPa 0,0 l/m 0,00 h 0,00 h 0,0 UV-I 99 W/m 4,5 km/h (1 Bft)
11.06.2014 09:00 15,4 C 14,6 C 93 % 1024,9 hPa 0,0 l/m 0,00 h 0,00 h 0,0 UV-I 109 W/m 0,6 km/h (0 Bft)
11.06.2014 10:00 17,2 C 17,0 C 90 % 1024,8 hPa 0,0 l/m 0,60 h 0,00 h 1,3 UV-I 412 W/m 4,4 km/h (1 Bft)
11.06.2014 11:00 18,8 C 19,0 C 83 % 1025,1 hPa 0,0 l/m 0,70 h 0,00 h 1,3 UV-I 426 W/m 12,7 km/h (3 Bft)
11.06.2014 12:00 19,9 C 21,2 C 75 % 1025,2 hPa 0,0 l/m 0,83 h 0,00 h 2,2 UV-I 585 W/m 13,7 km/h (3 Bft)
11.06.2014 13:00 21,4 C 21,9 C 68 % 1025,3 hPa 0,0 l/m 0,97 h 0,00 h 2,9 UV-I 763 W/m 17,9 km/h (3 Bft)
11.06.2014 14:00 22,4 C 24,2 C 62 % 1025,4 hPa 0,0 l/m 0,97 h 0,00 h 2,6 UV-I 688 W/m 16,1 km/h (3 Bft)
11.06.2014 15:00 22,9 C 23,4 C 61 % 1025,5 hPa 0,0 l/m 0,97 h 0,00 h 2,3 UV-I 711 W/m 17,4 km/h (3 Bft)
11.06.2014 16:00 23,3 C 23,2 C 60 % 1025,5 hPa 0,0 l/m 0,93 h 0,00 h 1,6 UV-I 641 W/m 18,8 km/h (3 Bft)
11.06.2014 17:00 23,3 C 22,5 C 57 % 1025,7 hPa 0,0 l/m 0,90 h 0,00 h 0,6 UV-I 490 W/m 15,8 km/h (3 Bft)
11.06.2014 18:00 22,7 C 21,4 C 59 % 1025,8 hPa 0,0 l/m 0,93 h 0,00 h 0,0 UV-I 320 W/m 15,1 km/h (3 Bft)
11.06.2014 19:00 22,0 C 20,8 C 61 % 1025,9 hPa 0,0 l/m 0,67 h 0,00 h 0,0 UV-I 177 W/m 16,0 km/h (3 Bft)
11.06.2014 20:00 21,1 C 19,4 C 64 % 1026,1 hPa 0,0 l/m 0,60 h 0,00 h 0,0 UV-I 83 W/m 13,1 km/h (3 Bft)
11.06.2014 21:00 19,1 C 17,1 C 69 % 1026,6 hPa 0,0 l/m 0,00 h 0,00 h 0,0 UV-I 14 W/m 7,6 km/h (2 Bft)
11.06.2014 22:00 17,1 C 14,7 C 74 % 1027,1 hPa 0,0 l/m 0,00 h 0,00 h 0,0 UV-I 0 W/m 2,2 km/h (1 Bft)
11.06.2014 23:00 15,9 C 13,7 C 78 % 1027,3 hPa 0,0 l/m 0,00 h 0,00 h 0,0 UV-I 0 W/m 1,3 km/h (1 Bft)
12.06.2014 00:00 14,9 C 12,7 C 83 % 1027,5 hPa 0,0 l/m 0,00 h 0,00 h 0,0 UV-I 0 W/m 0,4 km/h (0 Bft)
12.06.2014 01:00 14,0 C 12,0 C 85 % 1027,4 hPa 0,0 l/m 0,00 h 0,00 h 0,0 UV-I 0 W/m 0,3 km/h (0 Bft)
12.06.2014 02:00 13,1 C 11,3 C 88 % 1027,3 hPa 0,0 l/m 0,00 h 0,00 h 0,0 UV-I 0 W/m 0,0 km/h (0 Bft)
12.06.2014 03:00 12,3 C 10,7 C 90 % 1027,2 hPa 0,0 l/m 0,00 h 0,00 h 0,0 UV-I 0 W/m 0,0 km/h (0 Bft)
12.06.2014 04:00 11,6 C 10,0 C 92 % 1027,2 hPa 0,0 l/m 0,00 h 0,00 h 0,0 UV-I 0 W/m 0,0 km/h (0 Bft)
12.06.2014 05:00 11,1 C 9,6 C 94 % 1027,3 hPa 0,0 l/m 0,47 h 0,00 h 0,0 UV-I 30 W/m 0,1 km/h (0 Bft)
12.06.2014 06:00 11,4 C 10,2 C 95 % 1027,4 hPa 0,0 l/m 0,97 h 0,00 h 0,0 UV-I 183 W/m 0,7 km/h (0 Bft)
12.06.2014 07:00 13,6 C 12,5 C 91 % 1027,6 hPa 0,0 l/m 0,97 h 0,00 h 0,0 UV-I 378 W/m 10,6 km/h (2 Bft)
12.06.2014 08:00 15,8 C 14,5 C 85 % 1027,7 hPa 0,0 l/m 0,97 h 0,00 h 0,5 UV-I 573 W/m 13,6 km/h (3 Bft)
12.06.2014 09:00 18,0 C 16,9 C 78 % 1027,8 hPa 0,0 l/m 0,97 h 0,00 h 0,9 UV-I 754 W/m 13,6 km/h (3 Bft)
12.06.2014 10:00 19,3 C 20,9 C 64 % 1027,5 hPa 0,0 l/m 0,97 h 0,00 h 1,9 UV-I 977 W/m 15,4 km/h (3 Bft)
12.06.2014 11:00 20,0 C 22,6 C 59 % 1027,4 hPa 0,0 l/m 0,87 h 0,00 h 1,8 UV-I 799 W/m 16,0 km/h (3 Bft)
12.06.2014 12:00 20,4 C 23,8 C 60 % 1027,3 hPa 0,0 l/m 0,80 h 0,00 h 2,7 UV-I 1014 W/m 15,3 km/h (3 Bft)
12.06.2014 13:00 21,5 C 22,4 C 58 % 1027,1 hPa 0,0 l/m 1,00 h 0,00 h 3,3 UV-I 1120 W/m 16,7 km/h (3 Bft)
12.06.2014 14:00 21,7 C 24,2 C 59 % 1026,9 hPa 0,0 l/m 0,97 h 0,00 h 2,8 UV-I 1009 W/m 18,5 km/h (3 Bft)
12.06.2014 15:00 22,1 C 23,1 C 57 % 1026,7 hPa 0,0 l/m 1,00 h 0,00 h 2,4 UV-I 972 W/m 20,1 km/h (4 Bft)
12.06.2014 16:00 22,2 C 21,9 C 56 % 1026,1 hPa 0,0 l/m 1,00 h 0,00 h 1,6 UV-I 843 W/m 19,9 km/h (4 Bft)
12.06.2014 17:00 22,2 C 21,7 C 57 % 1025,6 hPa 0,0 l/m 1,00 h 0,00 h 0,5 UV-I 681 W/m 20,5 km/h (4 Bft)
12.06.2014 18:00 22,0 C 20,8 C 57 % 1025,3 hPa 0,0 l/m 0,97 h 0,00 h 0,0 UV-I 487 W/m 17,9 km/h (3 Bft)
12.06.2014 19:00 21,7 C 20,1 C 57 % 1024,9 hPa 0,0 l/m 1,00 h 0,00 h 0,0 UV-I 278 W/m 16,3 km/h (3 Bft)
12.06.2014 20:00 21,1 C 19,6 C 60 % 1024,7 hPa 0,0 l/m 0,90 h 0,00 h 0,0 UV-I 118 W/m 13,0 km/h (3 Bft)
12.06.2014 21:00 19,6 C 17,6 C 67 % 1024,7 hPa 0,0 l/m 0,17 h 0,00 h 0,0 UV-I 18 W/m 2,7 km/h (1 Bft)
12.06.2014 22:00 17,5 C 14,9 C 78 % 1024,8 hPa 0,0 l/m 0,00 h 0,00 h 0,0 UV-I 0 W/m 0,0 km/h (0 Bft)
12.06.2014 23:00 15,8 C 13,7 C 85 % 1024,7 hPa 0,0 l/m 0,00 h 0,00 h 0,0 UV-I 0 W/m 0,0 km/h (0 Bft)
13.06.2014 00:00 14,7 C 12,9 C 89 % 1024,7 hPa 0,0 l/m 0,00 h 0,00 h 0,0 UV-I 0 W/m 0,0 km/h (0 Bft)
13.06.2014 01:00 14,2 C 12,3 C 91 % 1024,4 hPa 0,0 l/m 0,00 h 0,00 h 0,0 UV-I 0 W/m 0,1 km/h (0 Bft)
13.06.2014 02:00 13,9 C 11,9 C 91 % 1024,1 hPa 0,0 l/m 0,00 h 0,00 h 0,0 UV-I 0 W/m 0,1 km/h (0 Bft)
13.06.2014 03:00 13,4 C 11,6 C 93 % 1023,7 hPa 0,0 l/m 0,00 h 0,00 h 0,0 UV-I 0 W/m 0,0 km/h (0 Bft)
13.06.2014 04:00 12,8 C 11,1 C 94 % 1023,5 hPa 0,0 l/m 0,00 h 0,00 h 0,0 UV-I 0 W/m 0,0 km/h (0 Bft)
13.06.2014 05:00 12,3 C 10,9 C 96 % 1023,1 hPa 0,0 l/m 0,47 h 0,00 h 0,0 UV-I 27 W/m 0,0 km/h (0 Bft)
13.06.2014 06:00 12,7 C 11,6 C 97 % 1023,0 hPa 0,0 l/m 0,97 h 0,00 h 0,0 UV-I 153 W/m 0,4 km/h (0 Bft)
13.06.2014 07:00 14,6 C 13,4 C 93 % 1023,1 hPa 0,0 l/m 1,00 h 0,00 h 0,0 UV-I 338 W/m 2,7 km/h (1 Bft)
13.06.2014 08:00 16,7 C 15,4 C 84 % 1023,3 hPa 0,0 l/m 1,00 h 0,00 h 0,0 UV-I 535 W/m 13,9 km/h (3 Bft)
13.06.2014 09:00 18,5 C 17,4 C 75 % 1023,4 hPa 0,0 l/m 1,00 h 0,00 h 0,8 UV-I 731 W/m 18,0 km/h (3 Bft)
13.06.2014 10:00 19,9 C 21,3 C 71 % 1023,2 hPa 0,0 l/m 0,87 h 0,00 h 1,3 UV-I 869 W/m 16,2 km/h (3 Bft)
13.06.2014 11:00 20,4 C 22,6 C 67 % 1023,2 hPa 0,0 l/m 0,70 h 0,00 h 1,6 UV-I 826 W/m 17,7 km/h (3 Bft)
13.06.2014 12:00 21,1 C 24,5 C 62 % 1022,9 hPa 0,0 l/m 0,80 h 0,00 h 2,2 UV-I 950 W/m 18,9 km/h (3 Bft)
13.06.2014 13:00 22,0 C 23,0 C 57 % 1022,6 hPa 0,0 l/m 0,97 h 0,00 h 2,9 UV-I 1118 W/m 22,6 km/h (4 Bft)
13.06.2014 14:00 22,1 C 24,8 C 59 % 1022,1 hPa 0,0 l/m 0,83 h 0,00 h 2,2 UV-I 939 W/m 17,3 km/h (3 Bft)
13.06.2014 15:00 22,5 C 25,2 C 60 % 1021,8 hPa 0,0 l/m 1,00 h 0,00 h 1,4 UV-I 689 W/m 18,0 km/h (3 Bft)
13.06.2014 16:00 22,1 C 22,7 C 62 % 1021,3 hPa 0,0 l/m 0,73 h 0,00 h 0,8 UV-I 445 W/m 16,0 km/h (3 Bft)
13.06.2014 17:00 21,8 C 21,8 C 61 % 1020,8 hPa 0,0 l/m 0,23 h 0,00 h 0,5 UV-I 364 W/m 17,5 km/h (3 Bft)
13.06.2014 18:00 21,3 C 20,9 C 61 % 1020,4 hPa 0,0 l/m 0,40 h 0,00 h 0,0 UV-I 211 W/m 16,0 km/h (3 Bft)
13.06.2014 19:00 20,9 C 20,1 C 64 % 1020,2 hPa 0,0 l/m 0,20 h 0,00 h 0,0 UV-I 124 W/m 13,6 km/h (3 Bft)
13.06.2014 20:00 20,3 C 19,2 C 66 % 1020,1 hPa 0,0 l/m 0,20 h 0,00 h 0,0 UV-I 64 W/m 11,7 km/h (2 Bft)
13.06.2014 21:00 19,5 C 18,3 C 70 % 1020,1 hPa 0,0 l/m 0,00 h 0,00 h 0,0 UV-I 15 W/m 9,8 km/h (2 Bft)
13.06.2014 22:00 18,6 C 17,3 C 74 % 1020,1 hPa 0,0 l/m 0,00 h 0,00 h 0,0 UV-I 0 W/m 10,6 km/h (2 Bft)
13.06.2014 23:00 18,2 C 16,9 C 76 % 1020,2 hPa 0,0 l/m 0,00 h 0,00 h 0,0 UV-I 0 W/m 13,9 km/h (3 Bft)
14.06.2014 00:00 17,2 C 15,9 C 80 % 1020,2 hPa 0,0 l/m 0,00 h 0,00 h 0,0 UV-I 0 W/m 14,6 km/h (3 Bft)
14.06.2014 01:00 15,8 C 14,5 C 85 % 1020,3 hPa 0,0 l/m 0,00 h 0,00 h 0,0 UV-I 0 W/m 13,1 km/h (3 Bft)
14.06.2014 02:00 14,8 C 13,5 C 86 % 1020,3 hPa 0,0 l/m 0,00 h 0,00 h 0,0 UV-I 0 W/m 10,2 km/h (2 Bft)
14.06.2014 03:00 14,6 C 13,9 C 87 % 1020,3 hPa 0,0 l/m 0,00 h 0,00 h 0,0 UV-I 0 W/m 13,7 km/h (3 Bft)
14.06.2014 04:00 14,3 C 13,3 C 86 % 1020,1 hPa 0,0 l/m 0,00 h 0,00 h 0,0 UV-I 0 W/m 11,4 km/h (2 Bft)
14.06.2014 05:00 14,1 C 13,3 C 84 % 1020,2 hPa 0,0 l/m 0,07 h 0,00 h 0,0 UV-I 16 W/m 8,8 km/h (2 Bft)
14.06.2014 06:00 14,2 C 13,3 C 84 % 1020,2 hPa 0,0 l/m 0,00 h 0,00 h 0,0 UV-I 63 W/m 7,2 km/h (2 Bft)
14.06.2014 07:00 14,3 C 13,8 C 83 % 1020,4 hPa 0,0 l/m 0,00 h 0,00 h 0,0 UV-I 101 W/m 11,8 km/h (2 Bft)
14.06.2014 08:00 14,9 C 14,7 C 81 % 1020,6 hPa 0,0 l/m 0,50 h 0,00 h 0,0 UV-I 247 W/m 12,8 km/h (3 Bft)
14.06.2014 09:00 15,8 C 16,0 C 74 % 1020,6 hPa 0,0 l/m 1,00 h 0,00 h 0,0 UV-I 380 W/m 15,1 km/h (3 Bft)
14.06.2014 10:00 16,6 C 17,3 C 71 % 1020,6 hPa 0,0 l/m 1,00 h 0,00 h 0,8 UV-I 539 W/m 17,6 km/h (3 Bft)
14.06.2014 11:00 16,9 C 17,6 C 70 % 1020,6 hPa 0,0 l/m 0,27 h 0,00 h 0,9 UV-I 307 W/m 17,3 km/h (3 Bft)
14.06.2014 12:00 17,0 C 17,8 C 70 % 1020,7 hPa 0,0 l/m 0,33 h 0,00 h 1,1 UV-I 362 W/m 15,9 km/h (3 Bft)
14.06.2014 13:00 17,7 C 18,6 C 66 % 1020,7 hPa 0,0 l/m 0,47 h 0,00 h 1,2 UV-I 391 W/m 16,2 km/h (3 Bft)
14.06.2014 14:00 17,6 C 17,7 C 64 % 1020,7 hPa 0,0 l/m 0,10 h 0,00 h 0,6 UV-I 335 W/m 22,3 km/h (4 Bft)
14.06.2014 15:00 17,9 C 18,9 C 66 % 1020,7 hPa 0,0 l/m 0,63 h 0,00 h 0,9 UV-I 439 W/m 18,9 km/h (3 Bft)
14.06.2014 16:00 18,3 C 19,3 C 65 % 1020,6 hPa 0,0 l/m 0,83 h 0,00 h 0,8 UV-I 538 W/m 18,7 km/h (3 Bft)
14.06.2014 17:00 18,8 C 19,1 C 64 % 1020,4 hPa 0,0 l/m 0,87 h 0,00 h 0,5 UV-I 409 W/m 19,0 km/h (3 Bft)
14.06.2014 18:00 18,9 C 18,0 C 63 % 1020,3 hPa 0,0 l/m 0,93 h 0,00 h 0,0 UV-I 489 W/m 15,9 km/h (3 Bft)
14.06.2014 19:00 18,9 C 17,8 C 63 % 1020,2 hPa 0,0 l/m 1,00 h 0,00 h 0,0 UV-I 314 W/m 13,3 km/h (3 Bft)
14.06.2014 20:00 19,0 C 17,9 C 64 % 1020,2 hPa 0,0 l/m 1,00 h 0,00 h 0,0 UV-I 158 W/m 13,2 km/h (3 Bft)
14.06.2014 21:00 17,9 C 16,3 C 70 % 1020,5 hPa 0,0 l/m 0,63 h 0,00 h 0,0 UV-I 32 W/m 4,9 km/h (1 Bft)
14.06.2014 22:00 16,5 C 15,0 C 74 % 1021,1 hPa 0,0 l/m 0,00 h 0,00 h 0,0 UV-I 0 W/m 8,7 km/h (2 Bft)
14.06.2014 23:00 15,8 C 14,3 C 77 % 1021,6 hPa 0,0 l/m 0,00 h 0,00 h 0,0 UV-I 0 W/m 9,8 km/h (2 Bft)
15.06.2014 00:00 14,9 C 13,8 C 81 % 1022,2 hPa 0,0 l/m 0,00 h 0,00 h 0,0 UV-I 0 W/m 13,7 km/h (3 Bft)
15.06.2014 01:00 13,9 C 12,7 C 85 % 1022,5 hPa 0,0 l/m 0,00 h 0,00 h 0,0 UV-I 0 W/m 10,1 km/h (2 Bft)
15.06.2014 02:00 12,9 C 11,8 C 89 % 1022,8 hPa 0,0 l/m 0,00 h 0,00 h 0,0 UV-I 0 W/m 8,3 km/h (2 Bft)
15.06.2014 03:00 12,1 C 11,1 C 91 % 1023,0 hPa 0,0 l/m 0,00 h 0,00 h 0,0 UV-I 0 W/m 8,8 km/h (2 Bft)
15.06.2014 04:00 11,6 C 10,6 C 93 % 1023,0 hPa 0,0 l/m 0,00 h 0,00 h 0,0 UV-I 0 W/m 8,7 km/h (2 Bft)
15.06.2014 05:00 11,2 C 10,2 C 94 % 1023,1 hPa 0,0 l/m 0,47 h 0,00 h 0,0 UV-I 22 W/m 4,0 km/h (1 Bft)
15.06.2014 06:00 11,4 C 10,6 C 94 % 1023,2 hPa 0,0 l/m 0,97 h 0,00 h 0,0 UV-I 135 W/m 0,7 km/h (0 Bft)
15.06.2014 07:00 12,4 C 11,8 C 92 % 1023,3 hPa 0,0 l/m 0,93 h 0,00 h 0,0 UV-I 257 W/m 7,8 km/h (2 Bft)
15.06.2014 08:00 13,5 C 13,3 C 88 % 1023,4 hPa 0,0 l/m 0,23 h 0,00 h 0,0 UV-I 198 W/m 13,3 km/h (3 Bft)
15.06.2014 09:00 14,4 C 14,4 C 84 % 1023,5 hPa 0,0 l/m 0,50 h 0,00 h 0,0 UV-I 250 W/m 12,8 km/h (3 Bft)
15.06.2014 10:00 15,6 C 16,4 C 80 % 1023,6 hPa 0,0 l/m 0,73 h 0,00 h 0,9 UV-I 447 W/m 13,3 km/h (3 Bft)
15.06.2014 11:00 17,2 C 19,8 C 73 % 1023,5 hPa 0,0 l/m 0,63 h 0,00 h 1,5 UV-I 648 W/m 14,7 km/h (3 Bft)
15.06.2014 12:00 18,2 C 21,4 C 69 % 1023,4 hPa 0,0 l/m 0,50 h 0,00 h 1,6 UV-I 726 W/m 17,1 km/h (3 Bft)
15.06.2014 13:00 19,4 C 20,7 C 65 % 1023,1 hPa 0,0 l/m 0,67 h 0,00 h 2,0 UV-I 824 W/m 16,2 km/h (3 Bft)
15.06.2014 14:00 20,3 C 23,6 C 61 % 1022,8 hPa 0,0 l/m 0,70 h 0,00 h 2,0 UV-I 786 W/m 19,2 km/h (3 Bft)
15.06.2014 15:00 20,8 C 26,2 C 58 % 1022,5 hPa 0,0 l/m 0,90 h 0,00 h 1,8 UV-I 887 W/m 18,9 km/h (3 Bft)
15.06.2014 16:00 20,9 C 22,2 C 56 % 1022,0 hPa 0,0 l/m 0,37 h 0,00 h 1,0 UV-I 459 W/m 15,5 km/h (3 Bft)
15.06.2014 17:00 20,8 C 20,6 C 56 % 1021,7 hPa 0,0 l/m 0,57 h 0,00 h 0,0 UV-I 505 W/m 17,6 km/h (3 Bft)
15.06.2014 18:00 20,7 C 19,9 C 57 % 1021,5 hPa 0,0 l/m 0,80 h 0,00 h 0,0 UV-I 376 W/m 19,8 km/h (3 Bft)
15.06.2014 19:00 20,3 C 18,9 C 57 % 1021,4 hPa 0,0 l/m 0,57 h 0,00 h 0,0 UV-I 182 W/m 17,7 km/h (3 Bft)
15.06.2014 20:00 19,9 C 18,3 C 59 % 1021,5 hPa 0,0 l/m 1,00 h 0,00 h 0,0 UV-I 116 W/m 13,2 km/h (3 Bft)
15.06.2014 21:00 18,8 C 17,3 C 66 % 1021,7 hPa 0,0 l/m 0,63 h 0,00 h 0,0 UV-I 27 W/m 17,6 km/h (3 Bft)
15.06.2014 22:00 17,0 C 15,5 C 75 % 1022,5 hPa 0,0 l/m 0,00 h 0,00 h 0,0 UV-I 0 W/m 18,7 km/h (3 Bft)
15.06.2014 23:00 15,7 C 14,3 C 79 % 1023,1 hPa 0,0 l/m 0,00 h 0,00 h 0,0 UV-I 0 W/m 15,3 km/h (3 Bft)
Min-Datum _ 12.06.14 12.06.14 09.06.14 09.06.14 - - - - - 09.06.14
_ Min-Zeit 05:54 05:22 17:36 19:12 - - - - - 00:00
Minimum _ 10,8 C 9,4 C 49 % 1013,5 hPa - - - - - 0,0 km/h (0 Bft)
Max-Datum _ 09.06.14 10.06.14 09.06.14 12.06.14 09.06.14 09.06.14 09.06.14 10.06.14 13.06.14 09.06.14
_ Max-Zeit 13:04 16:16 05:22 09:10 21:01 07:12 00:48 12:38 14:36 20:59
Maximum _ 30,2 C 36,7 C 98 % 1027,9 hPa 14,4 l/m 0,03 h 0,03 h 5,6 UV-I 1399 W/m 121,3 km/h
N-NO (12 Bft)
Durchschnitt _ 19,1 C 18,4 C 77 % 1021,5 hPa #29,4 l/m #76:11 h #8:12 h 1,9 UV-I 414 W/m 12,0 km/h (2 Bft)
© 2014 W. Hausmann